createdAt,value
2022-08-08T00:01:06.787Z,18.96
2022-08-08T00:04:30.702Z,18.95
2022-08-08T00:08:08.345Z,18.96
2022-08-08T00:11:22.219Z,18.96
2022-08-08T00:14:59.121Z,19.04
2022-08-08T00:18:10.027Z,18.68
2022-08-08T00:21:19.630Z,18.65
2022-08-08T00:24:34.328Z,18.65
2022-08-08T00:27:42.286Z,18.65
2022-08-08T00:31:00.474Z,18.70
2022-08-08T00:34:50.161Z,18.92
2022-08-08T00:38:31.448Z,19.11
2022-08-08T00:42:09.149Z,19.26
2022-08-08T00:45:39.854Z,19.14
2022-08-08T00:49:11.701Z,19.22
2022-08-08T00:52:40.240Z,19.33
2022-08-08T00:56:04.493Z,19.77
2022-08-08T00:59:18.744Z,19.58
2022-08-08T01:04:01.157Z,19.49
2022-08-08T01:07:17.716Z,19.39
2022-08-08T01:10:36.882Z,19.35
2022-08-08T01:13:58.245Z,19.38
2022-08-08T01:17:51.684Z,19.45
2022-08-08T01:21:11.915Z,19.40
2022-08-08T01:24:35.912Z,19.39
2022-08-08T01:27:44.535Z,19.42
2022-08-08T01:32:02.995Z,19.37
2022-08-08T01:34:59.767Z,19.44
2022-08-08T01:38:46.776Z,19.45
2022-08-08T01:42:02.057Z,19.50
2022-08-08T01:45:43.210Z,19.34
2022-08-08T01:49:10.949Z,19.41
2022-08-08T01:55:16.184Z,19.33
2022-08-08T01:57:01.296Z,19.38
2022-08-08T02:00:24.706Z,19.33
2022-08-08T02:03:57.078Z,19.24
2022-08-08T02:07:22.733Z,19.03
2022-08-08T02:10:44.627Z,18.98
2022-08-08T02:14:00.152Z,18.93
2022-08-08T02:17:24.820Z,19.03
2022-08-08T02:21:00.809Z,18.95
2022-08-08T02:24:05.124Z,18.96
2022-08-08T02:27:18.056Z,18.70
2022-08-08T02:30:34.205Z,18.65
2022-08-08T02:34:07.152Z,19.21
2022-08-08T02:37:52.930Z,19.12
2022-08-08T02:41:03.022Z,18.92
2022-08-08T02:44:56.723Z,18.84
2022-08-08T02:48:27.501Z,18.85
2022-08-08T02:51:58.621Z,18.99
2022-08-08T02:55:36.474Z,18.87
2022-08-08T02:59:02.374Z,18.84
2022-08-08T03:02:50.170Z,18.88
2022-08-08T03:05:59.892Z,18.70
2022-08-08T03:09:24.799Z,18.60
2022-08-08T03:13:07.163Z,18.75
2022-08-08T03:16:35.223Z,18.35
2022-08-08T03:19:50.889Z,18.92
2022-08-08T03:22:56.798Z,18.59
2022-08-08T03:26:03.535Z,18.61
2022-08-08T03:29:16.726Z,18.51
2022-08-08T03:32:41.433Z,18.70
2022-08-08T03:35:47.221Z,18.24
2022-08-08T03:39:07.437Z,18.31
2022-08-08T03:42:30.187Z,18.22
2022-08-08T03:46:05.789Z,18.50
2022-08-08T03:49:58.775Z,18.48
2022-08-08T03:52:45.191Z,18.12
2022-08-08T03:55:56.476Z,18.27
2022-08-08T03:59:01.258Z,18.23
2022-08-08T04:02:32.781Z,18.31
2022-08-08T04:05:39.923Z,18.49
2022-08-08T04:08:50.908Z,18.50
2022-08-08T04:12:00.527Z,18.69
2022-08-08T04:15:06.335Z,18.72
2022-08-08T04:18:17.136Z,18.81
2022-08-08T04:21:23.328Z,18.94
2022-08-08T04:24:28.709Z,18.98
2022-08-08T04:28:03.609Z,19.05
2022-08-08T04:30:57.712Z,19.14
2022-08-08T04:34:00.745Z,19.23
2022-08-08T04:37:04.294Z,19.18
2022-08-08T04:40:10.851Z,19.28
2022-08-08T04:43:17.515Z,19.29
2022-08-08T04:46:20.997Z,19.36
2022-08-08T04:49:28.837Z,19.44
2022-08-08T04:52:48.548Z,19.54
2022-08-08T04:56:02.025Z,19.70
2022-08-08T04:59:06.275Z,19.77
2022-08-08T05:02:13.400Z,19.77
2022-08-08T05:05:20.472Z,20.02
2022-08-08T05:08:43.197Z,20.13
2022-08-08T05:11:47.784Z,20.31
2022-08-08T05:15:00.232Z,20.44
2022-08-08T05:18:07.505Z,20.57
2022-08-08T05:21:11.183Z,20.62
2022-08-08T05:24:17.695Z,20.73
2022-08-08T05:27:25.605Z,20.90
2022-08-08T05:30:28.796Z,21.20
2022-08-08T05:33:44.016Z,21.32
2022-08-08T05:36:56.469Z,21.34
2022-08-08T05:40:04.376Z,21.35
2022-08-08T05:43:17.220Z,21.12
2022-08-08T05:46:35.449Z,21.17
2022-08-08T05:49:53.973Z,20.81
2022-08-08T05:53:54.464Z,20.56
2022-08-08T05:56:25.519Z,20.00
2022-08-08T05:59:59.838Z,19.17
2022-08-08T06:03:17.472Z,18.73
2022-08-08T06:06:32.753Z,18.49
2022-08-08T06:09:58.331Z,18.57
2022-08-08T06:13:03.153Z,18.64
2022-08-08T06:16:12.095Z,18.65
2022-08-08T06:19:19.454Z,18.62
2022-08-08T06:22:35.315Z,18.31
2022-08-08T06:26:35.697Z,18.42
2022-08-08T06:29:26.436Z,18.56
2022-08-08T06:32:35.055Z,18.17
2022-08-08T06:36:08.090Z,17.95
2022-08-08T06:39:13.239Z,18.27
2022-08-08T06:42:18.330Z,18.67
2022-08-08T06:45:25.049Z,18.80
2022-08-08T06:48:29.722Z,19.20
2022-08-08T06:51:49.027Z,19.51
2022-08-08T06:54:58.693Z,19.65
2022-08-08T06:58:04.109Z,20.01
2022-08-08T07:01:52.211Z,20.33
2022-08-08T07:04:49.720Z,20.50
2022-08-08T07:08:08.873Z,20.54
2022-08-08T07:11:21.951Z,20.60
2022-08-08T07:14:35.738Z,20.52
2022-08-08T07:18:35.954Z,20.60
2022-08-08T07:21:33.057Z,20.82
2022-08-08T07:24:54.999Z,20.49
2022-08-08T07:28:18.849Z,20.62
2022-08-08T07:31:24.350Z,20.73
2022-08-08T07:34:31.948Z,20.72
2022-08-08T07:37:55.632Z,20.81
2022-08-08T07:41:04.759Z,20.79
2022-08-08T07:44:33.503Z,20.85
2022-08-08T07:47:39.168Z,20.75
2022-08-08T07:50:46.446Z,20.89
2022-08-08T07:54:26.577Z,21.08
2022-08-08T07:57:53.445Z,21.45
2022-08-08T08:01:04.532Z,21.54
2022-08-08T08:04:14.753Z,21.71
2022-08-08T08:07:31.778Z,22.42
2022-08-08T08:10:38.443Z,22.16
2022-08-08T08:14:08.109Z,21.69
2022-08-08T08:17:18.430Z,21.90
2022-08-08T08:20:30.443Z,22.13
2022-08-08T08:23:41.123Z,21.93
2022-08-08T08:26:52.925Z,21.58
2022-08-08T08:29:58.789Z,21.62
2022-08-08T08:33:02.985Z,20.76
2022-08-08T08:36:20.418Z,20.71
2022-08-08T08:39:25.307Z,20.77
2022-08-08T08:42:49.960Z,20.77
2022-08-08T08:45:58.308Z,20.44
2022-08-08T08:49:06.829Z,20.59
2022-08-08T08:52:16.463Z,20.43
2022-08-08T08:55:27.104Z,20.50
2022-08-08T08:58:37.836Z,20.54
2022-08-08T09:01:49.517Z,20.48
2022-08-08T09:04:59.285Z,20.51
2022-08-08T09:08:12.426Z,20.67
2022-08-08T09:11:21.742Z,20.59
2022-08-08T09:14:27.254Z,20.77
2022-08-08T09:17:42.038Z,20.96
2022-08-08T09:21:56.517Z,20.78
2022-08-08T09:24:19.573Z,20.87
2022-08-08T09:27:55.945Z,20.77
2022-08-08T09:30:51.523Z,20.87
2022-08-08T09:34:30.508Z,20.79
2022-08-08T09:37:34.178Z,20.84
2022-08-08T09:40:57.416Z,20.85
2022-08-08T09:44:18.773Z,20.97
2022-08-08T09:48:09.458Z,21.04
2022-08-08T09:51:04.913Z,20.95
2022-08-08T09:54:15.512Z,20.97
2022-08-08T09:57:35.196Z,20.68
2022-08-08T10:00:56.715Z,20.63
2022-08-08T10:04:04.771Z,20.56
2022-08-08T10:07:13.811Z,20.80
2022-08-08T10:10:41.657Z,21.03
2022-08-08T10:14:00.142Z,21.32
2022-08-08T10:18:05.391Z,21.28
2022-08-08T10:20:51.367Z,21.36
2022-08-08T10:24:28.236Z,21.40
2022-08-08T10:27:42.101Z,21.72
2022-08-08T10:31:01.161Z,22.11
2022-08-08T10:34:19.206Z,22.39
2022-08-08T10:37:28.161Z,22.84
2022-08-08T10:40:37.105Z,22.94
2022-08-08T10:43:43.078Z,23.45
2022-08-08T10:46:46.284Z,23.22
2022-08-08T10:50:01.186Z,22.77
2022-08-08T10:53:12.510Z,22.50
2022-08-08T10:56:26.967Z,22.41
2022-08-08T10:59:39.793Z,22.22
2022-08-08T11:02:44.649Z,21.55
2022-08-08T11:06:00.439Z,21.72
2022-08-08T11:09:14.962Z,21.45
2022-08-08T11:12:22.439Z,21.62
2022-08-08T11:15:30.866Z,21.53
2022-08-08T11:18:36.035Z,21.69
2022-08-08T11:21:56.252Z,21.74
2022-08-08T11:25:14.295Z,22.16
2022-08-08T11:28:25.759Z,22.61
2022-08-08T11:31:53.214Z,22.56
2022-08-08T11:35:23.398Z,22.71
2022-08-08T11:38:36.201Z,23.12
2022-08-08T11:41:45.124Z,22.57
2022-08-08T11:44:48.865Z,22.48
2022-08-08T11:48:02.376Z,22.73
2022-08-08T11:51:34.963Z,22.73
2022-08-08T11:54:34.194Z,22.92
2022-08-08T11:57:40.909Z,22.94
2022-08-08T12:00:53.534Z,22.91
2022-08-08T12:03:59.646Z,23.12
2022-08-08T12:07:04.569Z,23.46
2022-08-08T12:10:18.827Z,23.43
2022-08-08T12:13:37.793Z,23.24
2022-08-08T12:16:49.370Z,23.00
2022-08-08T12:19:57.715Z,22.87
2022-08-08T12:23:00.893Z,22.77
2022-08-08T12:26:10.763Z,23.11
2022-08-08T12:29:41.959Z,23.33
2022-08-08T12:32:49.352Z,23.26
2022-08-08T12:35:54.052Z,23.01
2022-08-08T12:38:56.949Z,22.87
2022-08-08T12:42:04.755Z,23.09
2022-08-08T12:45:53.899Z,22.95
2022-08-08T12:48:37.024Z,22.52
2022-08-08T12:51:58.582Z,22.60
2022-08-08T12:55:13.139Z,22.47
2022-08-08T12:58:19.457Z,22.44
2022-08-08T13:01:49.526Z,22.53
2022-08-08T13:04:53.999Z,22.52
2022-08-08T13:08:03.443Z,22.67
2022-08-08T13:11:17.168Z,22.63
2022-08-08T13:14:21.487Z,22.82
2022-08-08T13:18:08.848Z,23.17
2022-08-08T13:20:50.598Z,23.41
2022-08-08T13:23:56.084Z,23.14
2022-08-08T13:27:11.819Z,23.58
2022-08-08T13:30:20.808Z,23.63
2022-08-08T13:33:24.875Z,23.71
2022-08-08T13:36:29.082Z,23.79
2022-08-08T13:39:40.538Z,24.02
2022-08-08T13:42:45.328Z,24.20
2022-08-08T13:45:49.643Z,24.13
2022-08-08T13:50:37.778Z,23.95
2022-08-08T13:52:35.756Z,24.02
2022-08-08T13:55:39.963Z,23.85
2022-08-08T13:58:57.656Z,23.85
2022-08-08T14:02:07.442Z,23.90
2022-08-08T14:05:21.879Z,23.75
2022-08-08T14:08:29.811Z,24.00
2022-08-08T14:11:34.139Z,23.96
2022-08-08T14:14:46.025Z,23.87
2022-08-08T14:18:35.973Z,23.94
2022-08-08T14:21:39.365Z,24.02
2022-08-08T14:24:48.495Z,23.83
2022-08-08T14:28:00.314Z,23.59
2022-08-08T14:31:09.541Z,23.62
2022-08-08T14:34:19.066Z,23.72
2022-08-08T14:37:28.025Z,23.36
2022-08-08T14:40:48.151Z,23.27
2022-08-08T14:44:10.535Z,23.12
2022-08-08T14:47:20.931Z,23.06
2022-08-08T14:50:39.298Z,22.67
2022-08-08T14:53:55.005Z,22.68
2022-08-08T14:56:59.514Z,22.39
2022-08-08T15:00:08.781Z,22.40
2022-08-08T15:03:14.675Z,22.18
2022-08-08T15:06:19.250Z,22.09
2022-08-08T15:09:25.796Z,22.18
2022-08-08T15:12:29.358Z,22.38
2022-08-08T15:16:02.423Z,22.50
2022-08-08T15:18:55.662Z,22.27
2022-08-08T15:21:58.776Z,22.13
2022-08-08T15:25:02.840Z,21.98
2022-08-08T15:28:34.571Z,22.03
2022-08-08T15:32:03.422Z,22.01
2022-08-08T15:35:00.907Z,21.92
2022-08-08T15:38:12.559Z,21.85
2022-08-08T15:41:17.551Z,21.87
2022-08-08T15:44:28.589Z,21.85
2022-08-08T15:47:32.227Z,21.91
2022-08-08T15:50:53.783Z,22.02
2022-08-08T15:53:56.978Z,22.37
2022-08-08T15:56:59.700Z,22.14
2022-08-08T16:00:26.922Z,22.13
2022-08-08T16:03:27.569Z,21.88
2022-08-08T16:06:32.758Z,21.76
2022-08-08T16:13:20.909Z,21.54
2022-08-08T16:13:27.732Z,21.40
2022-08-08T16:16:23.441Z,21.32
2022-08-08T16:19:30.347Z,21.33
2022-08-08T16:22:53.061Z,21.35
2022-08-08T16:25:58.211Z,21.24
2022-08-08T16:29:09.022Z,21.15
2022-08-08T16:32:20.877Z,21.10
2022-08-08T16:35:26.883Z,20.98
2022-08-08T16:38:32.647Z,20.87
2022-08-08T16:41:35.556Z,20.91
2022-08-08T16:44:38.787Z,20.82
2022-08-08T16:47:50.324Z,20.76
2022-08-08T16:50:53.771Z,20.71
2022-08-08T16:55:07.107Z,20.78
2022-08-08T16:58:14.757Z,20.80
2022-08-08T17:00:48.698Z,20.81
2022-08-08T17:04:00.657Z,20.81
2022-08-08T17:07:06.338Z,20.79
2022-08-08T17:10:16.914Z,20.69
2022-08-08T17:13:22.425Z,20.58
2022-08-08T17:16:30.874Z,20.46
2022-08-08T17:19:41.603Z,20.38
2022-08-08T17:22:44.852Z,20.29
2022-08-08T17:26:07.662Z,20.26
2022-08-08T17:29:15.166Z,20.22
2022-08-08T17:32:28.813Z,20.10
2022-08-08T17:35:55.735Z,20.08
2022-08-08T17:39:05.153Z,19.89
2022-08-08T17:42:23.074Z,19.83
2022-08-08T17:45:25.991Z,19.71
2022-08-08T17:48:31.506Z,19.59
2022-08-08T17:51:34.573Z,19.51
2022-08-08T17:54:37.582Z,19.51
2022-08-08T17:57:41.980Z,19.42
2022-08-08T18:00:47.434Z,19.38
2022-08-08T18:04:00.390Z,19.35
2022-08-08T18:08:01.176Z,19.29
2022-08-08T18:10:32.034Z,19.30
2022-08-08T18:13:41.925Z,19.15
2022-08-08T18:16:52.899Z,19.08
2022-08-08T18:20:36.719Z,19.12
2022-08-08T18:23:20.369Z,19.05
2022-08-08T18:26:24.130Z,19.01
2022-08-08T18:29:36.065Z,18.92
2022-08-08T18:32:38.858Z,18.78
2022-08-08T18:35:48.516Z,18.85
2022-08-08T18:38:52.116Z,18.79
2022-08-08T18:42:02.912Z,18.78
2022-08-08T18:45:09.365Z,18.67
2022-08-08T18:48:30.984Z,18.64
2022-08-08T18:51:54.059Z,18.67
2022-08-08T18:54:59.231Z,18.51
2022-08-08T18:58:05.020Z,18.59
2022-08-08T19:02:25.426Z,18.58
2022-08-08T19:04:32.180Z,18.58
2022-08-08T19:07:39.648Z,18.55
2022-08-08T19:11:01.711Z,18.49
2022-08-08T19:14:05.299Z,18.49
2022-08-08T19:17:10.774Z,18.55
2022-08-08T19:20:14.507Z,18.54
2022-08-08T19:23:21.599Z,18.60
2022-08-08T19:26:30.472Z,18.60
2022-08-08T19:29:40.668Z,18.53
2022-08-08T19:32:44.033Z,18.62
2022-08-08T19:36:07.894Z,18.66
2022-08-08T19:39:11.354Z,18.84
2022-08-08T19:42:14.095Z,18.78
2022-08-08T19:45:58.919Z,18.69
2022-08-08T19:48:40.850Z,18.76
2022-08-08T19:51:45.623Z,18.78
2022-08-08T19:54:51.209Z,18.57
2022-08-08T19:57:56.464Z,18.58
2022-08-08T20:01:01.286Z,18.57
2022-08-08T20:04:04.986Z,18.62
2022-08-08T20:08:28.104Z,18.58
2022-08-08T20:10:36.058Z,18.59
2022-08-08T20:14:33.567Z,18.70
2022-08-08T20:17:02.669Z,18.66
2022-08-08T20:20:15.922Z,18.61
2022-08-08T20:23:22.430Z,18.54
2022-08-08T20:26:30.241Z,18.36
2022-08-08T20:29:45.448Z,18.34
2022-08-08T20:32:58.267Z,18.29
2022-08-08T20:36:06.444Z,18.16
2022-08-08T20:39:11.440Z,18.11
2022-08-08T20:42:14.606Z,17.86
2022-08-08T20:45:19.153Z,18.02
2022-08-08T20:48:42.201Z,17.94
2022-08-08T20:51:46.009Z,17.71
2022-08-08T20:54:50.727Z,17.83
2022-08-08T20:57:53.550Z,17.87
2022-08-08T21:00:56.680Z,17.73
2022-08-08T21:04:00.196Z,17.76
2022-08-08T21:07:13.229Z,17.70
2022-08-08T21:10:21.022Z,17.74
2022-08-08T21:13:39.959Z,17.65
2022-08-08T21:16:43.652Z,17.73
2022-08-08T21:19:47.271Z,17.79
2022-08-08T21:22:50.814Z,17.64
2022-08-08T21:25:54.947Z,17.57
2022-08-08T21:29:02.213Z,17.62
2022-08-08T21:32:07.831Z,17.54
2022-08-08T21:36:13.819Z,17.45
2022-08-08T21:38:45.826Z,17.42
2022-08-08T21:41:53.930Z,17.42
2022-08-08T21:45:20.920Z,17.42
2022-08-08T21:48:35.321Z,17.50
2022-08-08T21:54:36.379Z,17.45
2022-08-08T21:56:18.266Z,17.46
2022-08-08T21:58:37.819Z,17.42
2022-08-08T22:01:42.528Z,17.44
2022-08-08T22:04:46.055Z,17.26
2022-08-08T22:07:49.908Z,17.32
2022-08-08T22:10:54.070Z,17.21
2022-08-08T22:13:58.471Z,17.26
2022-08-08T22:17:01.656Z,17.27
2022-08-08T22:20:11.407Z,17.36
2022-08-08T22:23:16.472Z,17.35
2022-08-08T22:26:28.711Z,17.38
2022-08-08T22:30:01.425Z,17.37
2022-08-08T22:32:56.282Z,17.35
2022-08-08T22:36:03.970Z,17.41
2022-08-08T22:39:19.737Z,17.45
2022-08-08T22:42:24.187Z,17.46
2022-08-08T22:45:34.745Z,17.46
2022-08-08T22:48:37.919Z,17.48
2022-08-08T22:51:42.223Z,17.43
2022-08-08T22:55:04.362Z,17.37
2022-08-08T22:58:08.072Z,17.38
2022-08-08T23:02:01.707Z,17.28
2022-08-08T23:04:34.963Z,17.06
2022-08-08T23:07:51.430Z,16.72
2022-08-08T23:11:06.306Z,16.56
2022-08-08T23:14:18.058Z,16.38
2022-08-08T23:17:22.074Z,16.44
2022-08-08T23:20:27.442Z,16.51
2022-08-08T23:23:32.329Z,16.38
2022-08-08T23:26:53.493Z,16.36
2022-08-08T23:29:59.419Z,16.40
2022-08-08T23:33:02.663Z,16.45
2022-08-08T23:36:08.614Z,16.49
2022-08-08T23:39:12.037Z,16.59
2022-08-08T23:42:14.706Z,16.54
2022-08-08T23:45:19.446Z,16.56
2022-08-08T23:49:01.307Z,16.57
2022-08-08T23:52:08.733Z,16.65
2022-08-08T23:55:14.567Z,16.63
2022-08-08T23:58:37.877Z,16.68
